createdAt,value
2024-02-29T00:00:24.819Z,100840.38
2024-02-29T00:02:51.530Z,100837.63
2024-02-29T00:05:18.780Z,100837.94
2024-02-29T00:07:45.422Z,100828.56
2024-02-29T00:10:12.178Z,100838.13
2024-02-29T00:12:39.914Z,100840.38
2024-02-29T00:15:07.010Z,100831.59
2024-02-29T00:17:33.719Z,100834.06
2024-02-29T00:20:04.193Z,100836.81
2024-02-29T00:22:30.749Z,100829.97
2024-02-29T00:24:57.350Z,100837.09
2024-02-29T00:27:24.602Z,100830.78
2024-02-29T00:29:51.250Z,100836.28
2024-02-29T00:32:18.377Z,100828.34
2024-02-29T00:34:44.935Z,100820.59
2024-02-29T00:37:11.634Z,100822.53
2024-02-29T00:39:38.277Z,100808.78
2024-02-29T00:42:04.932Z,100808.78
2024-02-29T00:44:34.531Z,100800.88
2024-02-29T00:47:01.178Z,100807.97
2024-02-29T00:49:31.964Z,100805.84
2024-02-29T00:51:58.604Z,100807.19
2024-02-29T00:54:26.126Z,100799.25
2024-02-29T00:56:52.858Z,100796.50
2024-02-29T00:59:20.444Z,100795.97
2024-02-29T01:01:47.216Z,100795.38
2024-02-29T01:04:13.927Z,100797.81
2024-02-29T01:06:43.463Z,100801.69
2024-02-29T01:09:10.424Z,100795.06
2024-02-29T01:11:37.882Z,100777.25
2024-02-29T01:14:05.134Z,100789.56
2024-02-29T01:16:31.842Z,100770.63
2024-02-29T01:18:59.117Z,100775.81
2024-02-29T01:21:25.735Z,100771.44
2024-02-29T01:23:52.322Z,100753.81
2024-02-29T01:26:18.944Z,100770.31
2024-02-29T01:28:45.634Z,100769.50
2024-02-29T01:31:12.362Z,100768.69
2024-02-29T01:33:39.014Z,100772.56
2024-02-29T01:36:05.785Z,100761.56
2024-02-29T01:38:32.369Z,100764.00
2024-02-29T01:40:58.991Z,100762.38
2024-02-29T01:43:25.620Z,100752.59
2024-02-29T01:46:17.930Z,100747.50
2024-02-29T01:48:44.587Z,100739.38
2024-02-29T01:51:11.203Z,100743.75
2024-02-29T01:53:37.896Z,100741.81
2024-02-29T01:56:07.469Z,100732.25
2024-02-29T01:58:34.877Z,100731.13
2024-02-29T02:01:01.740Z,100737.72
2024-02-29T02:03:28.490Z,100737.72
2024-02-29T02:05:55.559Z,100732.03
2024-02-29T02:08:24.712Z,100741.94
2024-02-29T02:10:51.535Z,100734.50
2024-02-29T02:13:18.167Z,100741.63
2024-02-29T02:15:48.107Z,100741.63
2024-02-29T02:18:14.751Z,100745.50
2024-02-29T02:20:41.348Z,100748.25
2024-02-29T02:23:07.938Z,100741.09
2024-02-29T02:25:34.490Z,100740.28
2024-02-29T02:28:01.188Z,100740.09
2024-02-29T02:30:27.775Z,100737.34
2024-02-29T02:32:54.497Z,100732.66
2024-02-29T02:35:21.219Z,100737.34
2024-02-29T02:37:49.651Z,100737.34
2024-02-29T02:40:16.658Z,100727.47
2024-02-29T02:42:43.443Z,100715.16
2024-02-29T02:45:10.301Z,100710.59
2024-02-29T02:47:36.898Z,100708.84
2024-02-29T02:50:03.617Z,100710.25
2024-02-29T02:52:30.225Z,100685.47
2024-02-29T02:54:56.908Z,100711.28
2024-02-29T02:57:23.561Z,100704.97
2024-02-29T02:59:50.161Z,100702.53
2024-02-29T03:02:16.750Z,100695.44
2024-02-29T03:04:43.369Z,100697.34
2024-02-29T03:07:15.878Z,100694.91
2024-02-29T03:09:42.608Z,100693.50
2024-02-29T03:12:09.216Z,100687.78
2024-02-29T03:14:35.821Z,100691.84
2024-02-29T03:17:02.408Z,100690.22
2024-02-29T03:19:29.113Z,100685.84
2024-02-29T03:21:55.759Z,100684.44
2024-02-29T03:24:25.184Z,100680.34
2024-02-29T03:26:51.726Z,100670.97
2024-02-29T03:29:21.667Z,100670.97
2024-02-29T03:31:49.845Z,100659.47
2024-02-29T03:34:16.865Z,100646.47
2024-02-29T03:36:43.569Z,100663.56
2024-02-29T03:39:10.180Z,100663.06
2024-02-29T03:41:36.799Z,100664.69
2024-02-29T03:44:03.549Z,100666.09
2024-02-29T03:46:30.132Z,100662.22
2024-02-29T03:48:56.886Z,100660.59
2024-02-29T03:51:26.105Z,100656.72
2024-02-29T03:53:52.822Z,100643.53
2024-02-29T03:56:19.736Z,100649.94
2024-02-29T03:58:46.360Z,100648.59
2024-02-29T04:01:13.145Z,100649.13
2024-02-29T04:03:40.433Z,100645.72
2024-02-29T04:06:07.883Z,100647.38
2024-02-29T04:08:35.387Z,100656.72
2024-02-29T04:11:02.067Z,100639.97
2024-02-29T04:13:28.792Z,100647.47
2024-02-29T04:15:55.380Z,100650.44
2024-02-29T04:18:22.044Z,100647.69
2024-02-29T04:20:48.666Z,100646.38
2024-02-29T04:23:15.268Z,100645.72
2024-02-29T04:25:42.034Z,100641.69
2024-02-29T04:28:08.669Z,100643.13
2024-02-29T04:30:35.356Z,100611.97
2024-02-29T04:33:03.989Z,100630.69
2024-02-29T04:35:30.682Z,100635.38
2024-02-29T04:37:57.306Z,100618.38
2024-02-29T04:40:24.107Z,100595.88
2024-02-29T04:42:50.743Z,100622.13
2024-02-29T04:45:17.364Z,100628.75
2024-02-29T04:47:44.160Z,100627.63
2024-02-29T04:50:10.880Z,100627.97
2024-02-29T04:52:37.484Z,100623.88
2024-02-29T04:55:04.355Z,100620.00
2024-02-29T04:57:30.997Z,100612.38
2024-02-29T04:59:58.052Z,100614.81
2024-02-29T05:02:24.647Z,100618.72
2024-02-29T05:04:51.226Z,100614.81
2024-02-29T05:07:17.944Z,100617.88
2024-02-29T05:09:45.418Z,100608.53
2024-02-29T05:12:12.093Z,100617.25
2024-02-29T05:14:38.741Z,100598.97
2024-02-29T05:17:05.304Z,100604.66
2024-02-29T05:19:32.232Z,100614.22
2024-02-29T05:21:58.883Z,100613.41
2024-02-29T05:24:25.647Z,100610.16
2024-02-29T05:26:52.276Z,100591.66
2024-02-29T05:29:18.964Z,100599.16
2024-02-29T05:31:53.062Z,100585.94
2024-02-29T05:34:21.566Z,100602.00
2024-02-29T05:36:48.775Z,100599.16
2024-02-29T05:39:15.538Z,100596.41
2024-02-29T05:41:42.116Z,100600.78
2024-02-29T05:44:11.526Z,100593.03
2024-02-29T05:46:38.162Z,100604.84
2024-02-29T05:49:04.881Z,100594.38
2024-02-29T05:51:31.527Z,100601.16
2024-02-29T05:53:58.183Z,100601.16
2024-02-29T05:56:24.764Z,100595.03
2024-02-29T05:58:51.337Z,100588.53
2024-02-29T06:01:19.001Z,100593.25
2024-02-29T06:03:45.692Z,100583.28
2024-02-29T06:06:12.288Z,100582.88
2024-02-29T06:08:39.321Z,100584.09
2024-02-29T06:11:06.084Z,100582.97
2024-02-29T06:13:33.588Z,100580.84
2024-02-29T06:16:01.757Z,100570.47
2024-02-29T06:18:28.395Z,100574.31
2024-02-29T06:20:55.022Z,100573.72
2024-02-29T06:23:21.642Z,100570.97
2024-02-29T06:25:50.837Z,100575.97
2024-02-29T06:28:19.586Z,100571.56
2024-02-29T06:30:47.586Z,100561.53
2024-02-29T06:33:14.291Z,100551.97
2024-02-29T06:35:40.938Z,100565.09
2024-02-29T06:38:07.755Z,100568.44
2024-02-29T06:40:34.452Z,100559.72
2024-02-29T06:43:01.141Z,100551.28
2024-02-29T06:45:27.788Z,100542.41
2024-02-29T06:47:54.401Z,100566.81
2024-02-29T06:50:21.025Z,100562.34
2024-02-29T06:52:53.005Z,100559.06
2024-02-29T06:55:21.342Z,100559.97
2024-02-29T06:57:51.150Z,100558.88
2024-02-29T07:00:18.214Z,100555.63
2024-02-29T07:02:44.844Z,100565.00
2024-02-29T07:05:11.465Z,100555.09
2024-02-29T07:07:38.130Z,100554.63
2024-02-29T07:10:07.387Z,100554.81
2024-02-29T07:12:34.035Z,100558.66
2024-02-29T07:15:00.777Z,100549.94
2024-02-29T07:17:27.440Z,100559.50
2024-02-29T07:19:54.087Z,100558.03
2024-02-29T07:22:21.162Z,100562.66
2024-02-29T07:24:47.948Z,100556.03
2024-02-29T07:27:17.131Z,100551.34
2024-02-29T07:29:44.138Z,100548.31
2024-02-29T07:32:11.059Z,100554.81
2024-02-29T07:34:37.705Z,100554.19
2024-02-29T07:37:04.312Z,100548.69
2024-02-29T07:39:31.101Z,100524.69
2024-02-29T07:41:57.729Z,100540.94
2024-02-29T07:44:24.471Z,100544.19
2024-02-29T07:46:51.123Z,100544.00
2024-02-29T07:49:20.597Z,100543.81
2024-02-29T07:51:47.673Z,100547.56
2024-02-29T07:54:14.464Z,100544.81
2024-02-29T07:56:42.058Z,100546.25
2024-02-29T07:59:08.897Z,100547.88
2024-02-29T08:01:36.525Z,100548.69
2024-02-29T08:04:03.720Z,100544.31
2024-02-29T08:06:30.472Z,100553.56
2024-02-29T08:08:57.151Z,100545.19
2024-02-29T08:11:24.692Z,100545.53
2024-02-29T08:13:51.390Z,100531.09
2024-02-29T08:16:18.204Z,100526.09
2024-02-29T08:18:45.021Z,100530.97
2024-02-29T08:21:11.659Z,100531.78
2024-02-29T08:23:38.253Z,100514.50
2024-02-29T08:26:09.410Z,100521.09
2024-02-29T08:28:39.178Z,100523.97
2024-02-29T08:31:08.741Z,100521.84
2024-02-29T08:33:35.485Z,100525.28
2024-02-29T08:36:03.923Z,100512.03
2024-02-29T08:38:30.710Z,100519.34
2024-02-29T08:41:00.384Z,100517.72
2024-02-29T08:43:27.211Z,100508.34
2024-02-29T08:45:53.946Z,100515.97
2024-02-29T08:48:20.722Z,100490.69
2024-02-29T08:50:47.391Z,100512.13
2024-02-29T08:53:14.510Z,100513.22
2024-02-29T08:55:41.300Z,100504.88
2024-02-29T08:58:11.616Z,100506.69
2024-02-29T09:00:38.385Z,100499.75
2024-02-29T09:03:05.266Z,100495.88
2024-02-29T09:05:31.985Z,100492.50
2024-02-29T09:07:58.832Z,100492.81
2024-02-29T09:10:25.764Z,100495.88
2024-02-29T09:12:52.578Z,100487.31
2024-02-29T09:15:19.301Z,100481.22
2024-02-29T09:17:46.132Z,100480.59
2024-02-29T09:20:12.799Z,100474.25
2024-02-29T09:22:39.513Z,100463.75
2024-02-29T09:25:07.986Z,100464.28
2024-02-29T09:27:34.867Z,100460.38
2024-02-29T09:30:01.747Z,100450.53
2024-02-29T09:32:28.517Z,100452.00
2024-02-29T09:34:55.136Z,100447.97
2024-02-29T09:37:21.819Z,100445.41
2024-02-29T09:39:48.614Z,100445.88
2024-02-29T09:42:15.857Z,100430.34
2024-02-29T09:44:43.881Z,100438.13
2024-02-29T09:47:13.098Z,100433.44
2024-02-29T09:49:39.721Z,100423.75
2024-02-29T09:52:07.098Z,100437.06
2024-02-29T09:54:34.504Z,100428.81
2024-02-29T09:57:03.458Z,100424.66
2024-02-29T09:59:30.213Z,100427.41
2024-02-29T10:01:56.997Z,100423.34
2024-02-29T10:04:23.741Z,100424.66
2024-02-29T10:06:50.512Z,100405.66
2024-02-29T10:09:17.193Z,100410.59
2024-02-29T10:11:44.524Z,100407.91
2024-02-29T10:14:26.297Z,100403.31
2024-02-29T10:16:53.477Z,100398.22
2024-02-29T10:19:21.321Z,100391.00
2024-02-29T10:21:48.627Z,100381.16
2024-02-29T10:24:15.351Z,100380.13
2024-02-29T10:26:41.972Z,100367.38
2024-02-29T10:29:11.816Z,100367.56
2024-02-29T10:31:39.838Z,100368.72
2024-02-29T10:34:11.962Z,100364.22
2024-02-29T10:36:39.460Z,100365.41
2024-02-29T10:39:06.246Z,100361.06
2024-02-29T10:41:33.309Z,100357.88
2024-02-29T10:44:03.874Z,100356.91
2024-02-29T10:46:32.083Z,100355.16
2024-02-29T10:49:22.479Z,100344.81
2024-02-29T10:51:53.386Z,100338.69
2024-02-29T10:54:41.118Z,100330.63
2024-02-29T10:57:15.676Z,100316.88
2024-02-29T10:59:53.320Z,100322.63
2024-02-29T11:02:20.627Z,100315.81
2024-02-29T11:04:47.350Z,100311.78
2024-02-29T11:07:14.211Z,100296.84
2024-02-29T11:09:40.837Z,100304.66
2024-02-29T11:12:11.165Z,100307.25
2024-02-29T11:14:38.169Z,100287.53
2024-02-29T11:17:07.863Z,100294.97
2024-02-29T11:19:43.098Z,100267.75
2024-02-29T11:22:17.931Z,100270.19
2024-02-29T11:24:44.763Z,100277.34
2024-02-29T11:27:12.200Z,100269.41
2024-02-29T11:29:39.010Z,100254.84
2024-02-29T11:32:07.484Z,100263.59
2024-02-29T11:34:35.071Z,100263.75
2024-02-29T11:37:04.815Z,100250.16
2024-02-29T11:39:31.838Z,100246.75
2024-02-29T11:42:05.246Z,100244.63
2024-02-29T11:44:32.471Z,100237.69
2024-02-29T11:46:59.342Z,100231.84
2024-02-29T11:49:27.377Z,100225.22
2024-02-29T11:51:55.222Z,100215.03
2024-02-29T11:54:23.412Z,100218.56
2024-02-29T11:56:51.849Z,100223.13
2024-02-29T11:59:18.691Z,100217.16
2024-02-29T12:01:45.522Z,100207.25
2024-02-29T12:04:12.445Z,100203.38
2024-02-29T12:06:40.803Z,100201.09
2024-02-29T12:09:11.636Z,100189.47
2024-02-29T12:11:38.324Z,100190.75
2024-02-29T12:14:08.151Z,100189.13
2024-02-29T12:16:39.310Z,100182.19
2024-02-29T12:19:09.369Z,100170.88
2024-02-29T12:21:36.430Z,100160.81
2024-02-29T12:24:06.549Z,100149.16
2024-02-29T12:26:33.188Z,100159.50
2024-02-29T12:29:00.674Z,100149.63
2024-02-29T12:31:27.376Z,100142.81
2024-02-29T12:33:57.038Z,100139.88
2024-02-29T12:36:25.599Z,100135.03
2024-02-29T12:38:55.328Z,100125.31
2024-02-29T12:41:24.725Z,100119.63
2024-02-29T12:43:51.411Z,100114.13
2024-02-29T12:46:18.226Z,100112.97
2024-02-29T12:48:45.861Z,100106.47
2024-02-29T12:51:12.576Z,100110.19
2024-02-29T12:53:39.314Z,100095.47
2024-02-29T12:56:06.357Z,100101.72
2024-02-29T12:58:33.832Z,100094.75
2024-02-29T13:01:00.793Z,100089.88
2024-02-29T13:03:28.417Z,100089.66
2024-02-29T13:05:55.424Z,100077.97
2024-02-29T13:08:23.078Z,100073.63
2024-02-29T13:10:50.393Z,100043.50
2024-02-29T13:13:17.726Z,100059.47
2024-02-29T13:15:44.587Z,100046.63
2024-02-29T13:18:11.425Z,100046.63
2024-02-29T13:20:38.192Z,100030.97
2024-02-29T13:23:05.069Z,100042.84
2024-02-29T13:25:31.884Z,100038.97
2024-02-29T13:27:59.020Z,100035.91
2024-02-29T13:30:25.829Z,100029.72
2024-02-29T13:32:52.613Z,100020.31
2024-02-29T13:35:19.316Z,100013.19
2024-02-29T13:37:47.729Z,100009.09
2024-02-29T13:40:14.537Z,100002.44
2024-02-29T13:42:45.039Z,99991.41
2024-02-29T13:45:12.157Z,99989.13
2024-02-29T13:47:50.077Z,99967.75
2024-02-29T13:50:16.997Z,99967.09
2024-02-29T13:52:44.367Z,99964.34
2024-02-29T13:55:11.781Z,99957.41
2024-02-29T13:57:38.794Z,99966.28
2024-02-29T14:00:10.302Z,99956.75
2024-02-29T14:02:42.948Z,99938.31
2024-02-29T14:05:10.706Z,99941.81
2024-02-29T14:07:37.565Z,99945.72
2024-02-29T14:10:05.167Z,99936.28
2024-02-29T14:12:34.513Z,99939.41
2024-02-29T14:15:01.291Z,99935.84
2024-02-29T14:17:28.350Z,99934.22
2024-02-29T14:19:55.106Z,99925.50
2024-02-29T14:22:24.882Z,99915.59
2024-02-29T14:24:54.460Z,99914.59
2024-02-29T14:27:22.034Z,99912.41
2024-02-29T14:29:49.118Z,99905.25
2024-02-29T14:32:15.939Z,99909.16
2024-02-29T14:34:43.163Z,99892.16
2024-02-29T14:37:10.287Z,99883.06
2024-02-29T14:39:37.144Z,99882.91
2024-02-29T14:42:07.278Z,99882.25
2024-02-29T14:44:35.078Z,99871.22
2024-02-29T14:55:45.564Z,99854.06
2024-02-29T14:59:30.546Z,99857.97
2024-02-29T15:02:09.036Z,99844.69
2024-02-29T15:06:12.804Z,99848.25
2024-02-29T15:23:00.949Z,99810.13
2024-02-29T15:26:53.434Z,99812.69
2024-02-29T15:30:05.426Z,99803.13
2024-02-29T15:55:02.938Z,99755.50
2024-02-29T15:58:34.269Z,99746.28
2024-02-29T16:08:57.104Z,99736.91
2024-02-29T16:11:51.302Z,99741.50
2024-02-29T16:22:31.285Z,99726.19
2024-02-29T16:25:46.884Z,99712.31
2024-02-29T16:32:11.573Z,99712.31
2024-02-29T16:42:33.396Z,99710.91
2024-02-29T16:45:47.773Z,99704.94
2024-02-29T16:52:39.474Z,99701.38
2024-02-29T16:56:46.308Z,99694.16
2024-02-29T16:59:53.315Z,99695.75
2024-02-29T17:03:06.856Z,99691.16
2024-02-29T17:16:31.888Z,99690.66
2024-02-29T17:20:05.799Z,99694.56
2024-02-29T17:23:20.003Z,99691.59
2024-02-29T17:26:10.034Z,99690.97
2024-02-29T17:33:44.464Z,99690.25
2024-02-29T17:44:20.778Z,99678.63
2024-02-29T17:47:26.325Z,99672.44
2024-02-29T17:58:41.072Z,99665.59
2024-02-29T18:15:20.467Z,99643.38
2024-02-29T18:19:05.189Z,99638.22
2024-02-29T18:22:25.724Z,99645.44
2024-02-29T18:26:14.742Z,99641.56
2024-02-29T18:29:49.780Z,99635.28
2024-02-29T18:34:38.962Z,99629.28
2024-02-29T18:36:20.315Z,99630.44
2024-02-29T18:39:43.591Z,99632.16
2024-02-29T18:49:40.690Z,99627.47
2024-02-29T19:00:02.530Z,99605.44
2024-02-29T19:03:25.974Z,99599.03
2024-02-29T19:07:26.363Z,99614.19
2024-02-29T19:16:53.075Z,99607.88
2024-02-29T19:23:39.820Z,99595.25
2024-02-29T19:30:41.970Z,99581.16
2024-02-29T19:33:54.576Z,99589.88
2024-02-29T19:37:17.384Z,99581.63
2024-02-29T19:44:11.245Z,99579.22
2024-02-29T19:47:06.022Z,99577.13
2024-02-29T19:50:59.132Z,99572.00
2024-02-29T19:57:20.664Z,99571.63
2024-02-29T20:05:13.838Z,99559.47
2024-02-29T20:08:39.897Z,99552.84
2024-02-29T20:13:11.621Z,99553.66
2024-02-29T20:30:02.824Z,99549.50
2024-02-29T20:40:24.913Z,99552.72
2024-02-29T20:43:57.087Z,99558.91
2024-02-29T20:47:45.588Z,99566.00
2024-02-29T21:00:56.842Z,99572.00
2024-02-29T21:07:43.207Z,99572.19
2024-02-29T21:11:23.722Z,99572.19
2024-02-29T21:17:22.251Z,99565.88
2024-02-29T21:20:54.714Z,99560.84
2024-02-29T21:30:52.355Z,99557.28
2024-02-29T21:38:46.776Z,99552.47
2024-02-29T21:46:16.922Z,99552.34
2024-02-29T21:49:17.663Z,99558.66
2024-02-29T22:05:50.107Z,99541.22
2024-02-29T22:19:35.668Z,99529.75
2024-02-29T22:23:01.053Z,99533.50
2024-02-29T22:37:09.458Z,99524.22
2024-02-29T22:40:16.519Z,99534.53
2024-02-29T22:44:10.632Z,99531.44
2024-02-29T22:51:16.712Z,99524.88
2024-02-29T22:54:33.701Z,99528.13
2024-02-29T22:58:11.710Z,99528.13
2024-02-29T23:04:44.503Z,99502.84
2024-02-29T23:07:47.584Z,99503.75
2024-02-29T23:14:33.192Z,99524.69
2024-02-29T23:18:13.165Z,99523.84
2024-02-29T23:33:53.904Z,99521.44
2024-02-29T23:37:31.368Z,99518.69
2024-02-29T23:58:52.694Z,99514.81
